sensor_id;sensor_type;location;lat;lon;timestamp;pressure;altitude;pressure_sealevel;temperature;humidity
8039;BME280;4062;49.844;8.120;2023-04-20T00:01:37;99454.91;;;15.43;56.93
8039;BME280;4062;49.844;8.120;2023-04-20T00:03:39;99451.38;;;15.43;57.02
8039;BME280;4062;49.844;8.120;2023-04-20T00:05:41;99454.03;;;15.43;57.09
8039;BME280;4062;49.844;8.120;2023-04-20T00:07:42;99447.00;;;15.42;57.06
8039;BME280;4062;49.844;8.120;2023-04-20T00:09:43;99443.44;;;15.41;56.98
8039;BME280;4062;49.844;8.120;2023-04-20T00:11:44;99441.66;;;15.42;56.96
8039;BME280;4062;49.844;8.120;2023-04-20T00:13:48;99439.00;;;15.42;56.99
8039;BME280;4062;49.844;8.120;2023-04-20T00:15:50;99438.13;;;15.41;56.91
8039;BME280;4062;49.844;8.120;2023-04-20T00:17:51;99431.94;;;15.41;57.03
8039;BME280;4062;49.844;8.120;2023-04-20T00:19:53;99423.09;;;15.40;56.91
8039;BME280;4062;49.844;8.120;2023-04-20T00:21:54;99420.50;;;15.39;56.95
8039;BME280;4062;49.844;8.120;2023-04-20T00:23:56;99422.22;;;15.40;56.95
8039;BME280;4062;49.844;8.120;2023-04-20T00:25:57;99417.81;;;15.39;56.94
8039;BME280;4062;49.844;8.120;2023-04-20T00:27:59;99418.72;;;15.39;56.98
8039;BME280;4062;49.844;8.120;2023-04-20T00:30:00;99411.66;;;15.38;56.87
8039;BME280;4062;49.844;8.120;2023-04-20T00:32:02;99407.25;;;15.37;57.04
8039;BME280;4062;49.844;8.120;2023-04-20T00:34:06;99410.00;;;15.36;56.83
8039;BME280;4062;49.844;8.120;2023-04-20T00:36:08;99401.03;;;15.37;56.94
8039;BME280;4062;49.844;8.120;2023-04-20T00:38:10;99398.38;;;15.37;56.80
8039;BME280;4062;49.844;8.120;2023-04-20T00:40:11;99396.69;;;15.36;57.02
8039;BME280;4062;49.844;8.120;2023-04-20T00:42:13;99394.03;;;15.36;56.71
8039;BME280;4062;49.844;8.120;2023-04-20T00:44:14;99393.13;;;15.35;57.03
8039;BME280;4062;49.844;8.120;2023-04-20T00:46:15;99391.41;;;15.34;56.95
8039;BME280;4062;49.844;8.120;2023-04-20T00:48:17;99393.13;;;15.35;56.97
8039;BME280;4062;49.844;8.120;2023-04-20T00:50:19;99383.41;;;15.34;56.98
8039;BME280;4062;49.844;8.120;2023-04-20T00:52:21;99380.75;;;15.34;56.88
8039;BME280;4062;49.844;8.120;2023-04-20T00:54:22;99382.56;;;15.34;57.03
8039;BME280;4062;49.844;8.120;2023-04-20T00:56:23;99381.69;;;15.33;56.79
8039;BME280;4062;49.844;8.120;2023-04-20T00:58:24;99382.56;;;15.34;56.97
8039;BME280;4062;49.844;8.120;2023-04-20T01:00:26;99379.03;;;15.33;56.89
8039;BME280;4062;49.844;8.120;2023-04-20T01:02:27;99378.19;;;15.32;56.85
8039;BME280;4062;49.844;8.120;2023-04-20T01:04:29;99371.13;;;15.31;56.99
8039;BME280;4062;49.844;8.120;2023-04-20T01:06:32;99372.00;;;15.32;56.94
8039;BME280;4062;49.844;8.120;2023-04-20T01:08:34;99365.78;;;15.31;56.86
8039;BME280;4062;49.844;8.120;2023-04-20T01:10:38;99364.94;;;15.31;56.81
8039;BME280;4062;49.844;8.120;2023-04-20T01:12:41;99366.72;;;15.30;56.92
8039;BME280;4062;49.844;8.120;2023-04-20T01:14:44;99360.56;;;15.30;56.75
8039;BME280;4062;49.844;8.120;2023-04-20T01:16:46;99354.34;;;15.29;56.95
8039;BME280;4062;49.844;8.120;2023-04-20T01:18:49;99359.66;;;15.29;56.86
8039;BME280;4062;49.844;8.120;2023-04-20T01:20:51;99364.13;;;15.29;56.80
8039;BME280;4062;49.844;8.120;2023-04-20T01:22:54;99356.16;;;15.29;56.69
8039;BME280;4062;49.844;8.120;2023-04-20T01:24:56;99351.69;;;15.29;56.76
8039;BME280;4062;49.844;8.120;2023-04-20T01:26:57;99357.09;;;15.28;56.78
8039;BME280;4062;49.844;8.120;2023-04-20T01:28:59;99354.41;;;15.28;56.77
8039;BME280;4062;49.844;8.120;2023-04-20T01:31:02;99351.84;;;15.26;56.89
8039;BME280;4062;49.844;8.120;2023-04-20T01:33:06;99347.38;;;15.27;56.78
8039;BME280;4062;49.844;8.120;2023-04-20T01:35:08;99343.84;;;15.26;56.85
8039;BME280;4062;49.844;8.120;2023-04-20T01:37:12;99342.13;;;15.25;56.75
8039;BME280;4062;49.844;8.120;2023-04-20T01:39:13;99336.78;;;15.25;56.65
8039;BME280;4062;49.844;8.120;2023-04-20T01:41:14;99337.66;;;15.26;56.81
8039;BME280;4062;49.844;8.120;2023-04-20T01:43:16;99331.47;;;15.25;56.79
8039;BME280;4062;49.844;8.120;2023-04-20T01:45:19;99332.41;;;15.24;56.78
8039;BME280;4062;49.844;8.120;2023-04-20T01:47:20;99332.41;;;15.24;56.80
8039;BME280;4062;49.844;8.120;2023-04-20T01:49:22;99321.75;;;15.24;56.90
8039;BME280;4062;49.844;8.120;2023-04-20T01:51:23;99320.88;;;15.24;56.72
8039;BME280;4062;49.844;8.120;2023-04-20T01:53:24;99323.53;;;15.24;56.69
8039;BME280;4062;49.844;8.120;2023-04-20T01:55:26;99322.69;;;15.23;56.83
8039;BME280;4062;49.844;8.120;2023-04-20T01:57:27;99321.84;;;15.23;56.86
8039;BME280;4062;49.844;8.120;2023-04-20T01:59:29;99316.50;;;15.23;56.96
8039;BME280;4062;49.844;8.120;2023-04-20T02:01:30;99310.31;;;15.22;56.84
8039;BME280;4062;49.844;8.120;2023-04-20T02:03:31;99307.66;;;15.22;56.77
8039;BME280;4062;49.844;8.120;2023-04-20T02:05:33;99312.13;;;15.22;56.91
8039;BME280;4062;49.844;8.120;2023-04-20T02:07:34;99312.13;;;15.22;56.86
8039;BME280;4062;49.844;8.120;2023-04-20T02:09:35;99305.06;;;15.21;56.71
8039;BME280;4062;49.844;8.120;2023-04-20T02:11:37;99314.78;;;15.22;56.83
8039;BME280;4062;49.844;8.120;2023-04-20T02:13:40;99301.53;;;15.20;56.78
8039;BME280;4062;49.844;8.120;2023-04-20T02:15:41;99310.38;;;15.21;56.78
8039;BME280;4062;49.844;8.120;2023-04-20T02:17:45;99306.84;;;15.20;56.92
8039;BME280;4062;49.844;8.120;2023-04-20T02:19:52;99306.84;;;15.20;56.89
8039;BME280;4062;49.844;8.120;2023-04-20T02:21:53;99295.34;;;15.20;56.80
8039;BME280;4062;49.844;8.120;2023-04-20T02:23:54;99301.53;;;15.20;56.74
8039;BME280;4062;49.844;8.120;2023-04-20T02:25:56;99295.34;;;15.20;56.89
8039;BME280;4062;49.844;8.120;2023-04-20T02:27:57;99298.84;;;15.20;56.85
8039;BME280;4062;49.844;8.120;2023-04-20T02:29:59;99294.47;;;15.19;56.91
8039;BME280;4062;49.844;8.120;2023-04-20T02:32:00;99294.47;;;15.19;56.79
8039;BME280;4062;49.844;8.120;2023-04-20T02:34:02;99282.13;;;15.18;56.77
8039;BME280;4062;49.844;8.120;2023-04-20T02:36:06;99291.81;;;15.19;56.91
8039;BME280;4062;49.844;8.120;2023-04-20T02:38:07;99284.78;;;15.18;56.82
8039;BME280;4062;49.844;8.120;2023-04-20T02:40:09;99275.91;;;15.18;56.82
8039;BME280;4062;49.844;8.120;2023-04-20T02:42:10;99283.91;;;15.18;56.67
8039;BME280;4062;49.844;8.120;2023-04-20T02:44:12;99281.25;;;15.18;56.95
8039;BME280;4062;49.844;8.120;2023-04-20T02:46:14;99280.38;;;15.17;56.78
8039;BME280;4062;49.844;8.120;2023-04-20T02:48:16;99275.06;;;15.17;56.95
8039;BME280;4062;49.844;8.120;2023-04-20T02:50:19;99279.50;;;15.16;56.79
8039;BME280;4062;49.844;8.120;2023-04-20T02:52:42;99277.72;;;15.17;56.78
8039;BME280;4062;49.844;8.120;2023-04-20T02:54:43;99281.31;;;15.16;56.75
8039;BME280;4062;49.844;8.120;2023-04-20T02:56:46;99283.97;;;15.16;56.89
8039;BME280;4062;49.844;8.120;2023-04-20T02:58:48;99277.78;;;15.15;56.77
8039;BME280;4062;49.844;8.120;2023-04-20T03:01:11;99271.59;;;15.15;56.88
8039;BME280;4062;49.844;8.120;2023-04-20T03:03:13;99263.69;;;15.13;56.88
8039;BME280;4062;49.844;8.120;2023-04-20T03:05:15;99268.94;;;15.15;56.88
8039;BME280;4062;49.844;8.120;2023-04-20T03:07:18;99266.28;;;15.15;56.75
8039;BME280;4062;49.844;8.120;2023-04-20T03:09:24;99263.63;;;15.15;56.92
8039;BME280;4062;49.844;8.120;2023-04-20T03:11:44;99266.34;;;15.13;56.84
8039;BME280;4062;49.844;8.120;2023-04-20T03:13:53;99261.88;;;15.14;56.91
8039;BME280;4062;49.844;8.120;2023-04-20T03:15:54;99262.81;;;15.13;56.80
8039;BME280;4062;49.844;8.120;2023-04-20T03:18:03;99261.97;;;15.12;56.80
8039;BME280;4062;49.844;8.120;2023-04-20T03:20:07;99261.97;;;15.12;56.81
8039;BME280;4062;49.844;8.120;2023-04-20T03:22:12;99260.16;;;15.13;56.78
8039;BME280;4062;49.844;8.120;2023-04-20T03:24:14;99257.56;;;15.11;56.88
8039;BME280;4062;49.844;8.120;2023-04-20T03:26:16;99261.97;;;15.12;56.80
8039;BME280;4062;49.844;8.120;2023-04-20T03:28:31;99267.28;;;15.12;56.88
8039;BME280;4062;49.844;8.120;2023-04-20T03:30:33;99262.91;;;15.11;56.92
8039;BME280;4062;49.844;8.120;2023-04-20T03:32:39;99261.09;;;15.12;56.78
8039;BME280;4062;49.844;8.120;2023-04-20T03:34:41;99265.56;;;15.11;56.85
8039;BME280;4062;49.844;8.120;2023-04-20T03:36:43;99264.69;;;15.11;56.85
8039;BME280;4062;49.844;8.120;2023-04-20T03:38:44;99256.69;;;15.11;56.81
8039;BME280;4062;49.844;8.120;2023-04-20T03:40:46;99263.81;;;15.10;56.93
8039;BME280;4062;49.844;8.120;2023-04-20T03:42:47;99262.09;;;15.09;56.91
8039;BME280;4062;49.844;8.120;2023-04-20T03:44:49;99257.63;;;15.10;56.95
8039;BME280;4062;49.844;8.120;2023-04-20T03:46:50;99259.44;;;15.09;56.90
8039;BME280;4062;49.844;8.120;2023-04-20T03:48:52;99252.31;;;15.10;56.81
8039;BME280;4062;49.844;8.120;2023-04-20T03:50:54;99251.44;;;15.09;56.77
8039;BME280;4062;49.844;8.120;2023-04-20T03:52:55;99247.06;;;15.08;56.85
8039;BME280;4062;49.844;8.120;2023-04-20T03:54:56;99242.63;;;15.09;56.93
8039;BME280;4062;49.844;8.120;2023-04-20T03:56:58;99247.94;;;15.09;56.83
8039;BME280;4062;49.844;8.120;2023-04-20T03:59:01;99241.75;;;15.08;56.95
8039;BME280;4062;49.844;8.120;2023-04-20T04:01:06;99247.94;;;15.09;56.84
8039;BME280;4062;49.844;8.120;2023-04-20T04:03:09;99238.22;;;15.08;56.86
8039;BME280;4062;49.844;8.120;2023-04-20T04:05:10;99245.31;;;15.07;56.85
8039;BME280;4062;49.844;8.120;2023-04-20T04:07:11;99244.41;;;15.08;56.76
8039;BME280;4062;49.844;8.120;2023-04-20T04:09:15;99242.66;;;15.07;56.76
8039;BME280;4062;49.844;8.120;2023-04-20T04:11:16;99238.22;;;15.08;56.75
8039;BME280;4062;49.844;8.120;2023-04-20T04:13:18;99243.56;;;15.08;56.88
8039;BME280;4062;49.844;8.120;2023-04-20T04:15:19;99248.00;;;15.07;56.81
8039;BME280;4062;49.844;8.120;2023-04-20T04:17:41;99249.81;;;15.07;56.77
8039;BME280;4062;49.844;8.120;2023-04-20T04:19:42;99240.09;;;15.06;56.90
8039;BME280;4062;49.844;8.120;2023-04-20T04:21:43;99238.28;;;15.06;56.90
8039;BME280;4062;49.844;8.120;2023-04-20T04:23:46;99244.53;;;15.05;56.86
8039;BME280;4062;49.844;8.120;2023-04-20T04:25:53;99241.88;;;15.05;56.96
8039;BME280;4062;49.844;8.120;2023-04-20T04:27:58;99239.19;;;15.05;56.83
8039;BME280;4062;49.844;8.120;2023-04-20T04:30:02;99237.50;;;15.04;56.86
8039;BME280;4062;49.844;8.120;2023-04-20T04:32:05;99247.19;;;15.05;56.81
8039;BME280;4062;49.844;8.120;2023-04-20T04:34:06;99241.00;;;15.05;56.77
8039;BME280;4062;49.844;8.120;2023-04-20T04:36:17;99241.00;;;15.05;56.92
8039;BME280;4062;49.844;8.120;2023-04-20T04:38:21;99241.00;;;15.05;56.87
8039;BME280;4062;49.844;8.120;2023-04-20T04:40:24;99237.50;;;15.04;56.87
8039;BME280;4062;49.844;8.120;2023-04-20T04:42:31;99236.63;;;15.04;56.84
8039;BME280;4062;49.844;8.120;2023-04-20T04:44:35;99233.97;;;15.04;56.72
8039;BME280;4062;49.844;8.120;2023-04-20T04:46:39;99241.94;;;15.04;56.79
8039;BME280;4062;49.844;8.120;2023-04-20T04:48:41;99242.88;;;15.03;56.82
8039;BME280;4062;49.844;8.120;2023-04-20T04:50:43;99244.59;;;15.04;56.84
8039;BME280;4062;49.844;8.120;2023-04-20T04:52:45;99232.22;;;15.03;56.86
8039;BME280;4062;49.844;8.120;2023-04-20T04:54:46;99228.72;;;15.02;56.91
8039;BME280;4062;49.844;8.120;2023-04-20T04:56:47;99228.72;;;15.02;56.66
8039;BME280;4062;49.844;8.120;2023-04-20T04:58:48;99227.84;;;15.01;56.87
8039;BME280;4062;49.844;8.120;2023-04-20T05:00:50;99227.84;;;15.01;56.81
8039;BME280;4062;49.844;8.120;2023-04-20T05:02:51;99225.19;;;15.01;56.82
8039;BME280;4062;49.844;8.120;2023-04-20T05:04:53;99230.50;;;15.01;56.95
8039;BME280;4062;49.844;8.120;2023-04-20T05:06:55;99235.81;;;15.01;56.88
8039;BME280;4062;49.844;8.120;2023-04-20T05:08:56;99233.16;;;15.01;56.88
8039;BME280;4062;49.844;8.120;2023-04-20T05:10:57;99237.63;;;15.01;56.83
8039;BME280;4062;49.844;8.120;2023-04-20T05:12:59;99234.97;;;15.01;56.84
8039;BME280;4062;49.844;8.120;2023-04-20T05:15:00;99227.00;;;15.01;56.76
8039;BME280;4062;49.844;8.120;2023-04-20T05:17:01;99236.75;;;15.00;56.77
8039;BME280;4062;49.844;8.120;2023-04-20T05:19:03;99236.75;;;15.00;56.79
8039;BME280;4062;49.844;8.120;2023-04-20T05:21:04;99230.56;;;15.00;56.80
8039;BME280;4062;49.844;8.120;2023-04-20T05:23:06;99234.09;;;15.00;56.82
8039;BME280;4062;49.844;8.120;2023-04-20T05:25:07;99228.84;;;14.99;56.84
8039;BME280;4062;49.844;8.120;2023-04-20T05:27:09;99233.25;;;15.00;56.83
8039;BME280;4062;49.844;8.120;2023-04-20T05:29:15;99224.47;;;14.98;56.82
8039;BME280;4062;49.844;8.120;2023-04-20T05:31:17;99232.38;;;14.99;56.84
8039;BME280;4062;49.844;8.120;2023-04-20T05:33:18;99239.50;;;14.99;56.85
8039;BME280;4062;49.844;8.120;2023-04-20T05:35:20;99240.38;;;14.99;56.83
8039;BME280;4062;49.844;8.120;2023-04-20T05:37:22;99243.03;;;14.99;56.77
8039;BME280;4062;49.844;8.120;2023-04-20T05:39:23;99232.38;;;14.99;56.89
8039;BME280;4062;49.844;8.120;2023-04-20T05:41:25;99240.41;;;14.98;56.91
8039;BME280;4062;49.844;8.120;2023-04-20T05:43:29;99234.16;;;14.99;56.92
8039;BME280;4062;49.844;8.120;2023-04-20T05:45:30;99229.78;;;14.98;56.78
8039;BME280;4062;49.844;8.120;2023-04-20T05:47:34;99232.44;;;14.98;56.80
8039;BME280;4062;49.844;8.120;2023-04-20T05:49:35;99229.78;;;14.98;56.90
8039;BME280;4062;49.844;8.120;2023-04-20T05:51:37;99236.91;;;14.97;56.91
8039;BME280;4062;49.844;8.120;2023-04-20T05:53:38;99232.44;;;14.98;56.76
8039;BME280;4062;49.844;8.120;2023-04-20T05:55:39;99233.31;;;14.98;56.81
8039;BME280;4062;49.844;8.120;2023-04-20T05:57:43;99233.31;;;14.98;56.85
8039;BME280;4062;49.844;8.120;2023-04-20T05:59:45;99230.66;;;14.98;56.83
8039;BME280;4062;49.844;8.120;2023-04-20T06:01:49;99232.38;;;14.99;56.83
8039;BME280;4062;49.844;8.120;2023-04-20T06:03:51;99227.00;;;15.01;56.77
8039;BME280;4062;49.844;8.120;2023-04-20T06:05:52;99234.91;;;15.03;57.00
8039;BME280;4062;49.844;8.120;2023-04-20T06:07:53;99231.31;;;15.04;56.84
8039;BME280;4062;49.844;8.120;2023-04-20T06:09:54;99240.94;;;15.06;56.73
8039;BME280;4062;49.844;8.120;2023-04-20T06:11:56;99240.00;;;15.07;56.88
8039;BME280;4062;49.844;8.120;2023-04-20T06:13:57;99239.06;;;15.08;56.96
8039;BME280;4062;49.844;8.120;2023-04-20T06:15:59;99237.22;;;15.10;56.95
8039;BME280;4062;49.844;8.120;2023-04-20T06:18:00;99237.13;;;15.12;56.99
8039;BME280;4062;49.844;8.120;2023-04-20T06:20:01;99240.69;;;15.12;57.18
8039;BME280;4062;49.844;8.120;2023-04-20T06:22:07;99234.44;;;15.13;57.00
8039;BME280;4062;49.844;8.120;2023-04-20T06:24:09;99238.88;;;15.13;56.90
8039;BME280;4062;49.844;8.120;2023-04-20T06:26:10;99236.06;;;15.16;56.90
8039;BME280;4062;49.844;8.120;2023-04-20T06:28:12;99236.06;;;15.16;56.86
8039;BME280;4062;49.844;8.120;2023-04-20T06:30:13;99233.34;;;15.18;56.84
8039;BME280;4062;49.844;8.120;2023-04-20T06:32:15;99237.81;;;15.17;56.83
8039;BME280;4062;49.844;8.120;2023-04-20T06:34:16;99244.88;;;15.18;56.91
8039;BME280;4062;49.844;8.120;2023-04-20T06:36:17;99229.75;;;15.19;56.89
8039;BME280;4062;49.844;8.120;2023-04-20T06:38:19;99231.56;;;15.18;56.79
8039;BME280;4062;49.844;8.120;2023-04-20T06:40:20;99233.25;;;15.19;56.89
8039;BME280;4062;49.844;8.120;2023-04-20T06:42:22;99234.13;;;15.20;56.82
8039;BME280;4062;49.844;8.120;2023-04-20T06:44:24;99229.75;;;15.19;56.77
8039;BME280;4062;49.844;8.120;2023-04-20T06:46:26;99230.59;;;15.19;56.81
8039;BME280;4062;49.844;8.120;2023-04-20T06:48:30;99238.56;;;15.19;56.77
8039;BME280;4062;49.844;8.120;2023-04-20T06:50:31;99232.41;;;15.19;56.90
8039;BME280;4062;49.844;8.120;2023-04-20T06:52:32;99237.66;;;15.20;56.89
8039;BME280;4062;49.844;8.120;2023-04-20T06:54:33;99238.56;;;15.19;56.94
8039;BME280;4062;49.844;8.120;2023-04-20T06:56:35;99232.41;;;15.19;56.79
8039;BME280;4062;49.844;8.120;2023-04-20T06:58:36;99225.28;;;15.19;56.79
8039;BME280;4062;49.844;8.120;2023-04-20T07:00:37;99226.16;;;15.20;56.73
8039;BME280;4062;49.844;8.120;2023-04-20T07:02:46;99224.41;;;15.19;56.56
8039;BME280;4062;49.844;8.120;2023-04-20T07:04:47;99227.09;;;15.19;56.84
8039;BME280;4062;49.844;8.120;2023-04-20T07:06:49;99230.59;;;15.19;56.83
8039;BME280;4062;49.844;8.120;2023-04-20T07:08:51;99228.81;;;15.20;56.82
8039;BME280;4062;49.844;8.120;2023-04-20T07:10:52;99220.91;;;15.18;56.87
8039;BME280;4062;49.844;8.120;2023-04-20T07:12:53;99226.22;;;15.18;56.89
8039;BME280;4062;49.844;8.120;2023-04-20T07:14:55;99227.94;;;15.19;56.84
8039;BME280;4062;49.844;8.120;2023-04-20T07:16:56;99224.41;;;15.19;56.76
8039;BME280;4062;49.844;8.120;2023-04-20T07:18:57;99219.09;;;15.19;56.69
8039;BME280;4062;49.844;8.120;2023-04-20T07:20:59;99217.38;;;15.18;56.84
8039;BME280;4062;49.844;8.120;2023-04-20T07:23:00;99221.84;;;15.17;56.78
8039;BME280;4062;49.844;8.120;2023-04-20T07:25:03;99221.84;;;15.17;56.77
8039;BME280;4062;49.844;8.120;2023-04-20T07:27:05;99220.09;;;15.16;56.82
8039;BME280;4062;49.844;8.120;2023-04-20T07:29:08;99219.19;;;15.17;56.75
8039;BME280;4062;49.844;8.120;2023-04-20T07:31:10;99214.78;;;15.16;56.79
8039;BME280;4062;49.844;8.120;2023-04-20T07:33:11;99219.22;;;15.15;56.92
8039;BME280;4062;49.844;8.120;2023-04-20T07:35:12;99223.63;;;15.16;56.85
8039;BME280;4062;49.844;8.120;2023-04-20T07:37:13;99229.03;;;15.15;56.71
8039;BME280;4062;49.844;8.120;2023-04-20T07:39:15;99237.84;;;15.15;56.73
8039;BME280;4062;49.844;8.120;2023-04-20T07:41:16;99245.84;;;15.15;56.72
8039;BME280;4062;49.844;8.120;2023-04-20T07:43:17;99250.31;;;15.15;56.82
8039;BME280;4062;49.844;8.120;2023-04-20T07:45:19;99247.66;;;15.15;56.80
8039;BME280;4062;49.844;8.120;2023-04-20T07:47:21;99245.00;;;15.15;56.69
8039;BME280;4062;49.844;8.120;2023-04-20T07:49:23;99237.84;;;15.15;56.72
8039;BME280;4062;49.844;8.120;2023-04-20T07:51:25;99245.00;;;15.15;57.00
8039;BME280;4062;49.844;8.120;2023-04-20T07:53:30;99251.16;;;15.15;56.85
8039;BME280;4062;49.844;8.120;2023-04-20T07:55:35;99247.72;;;15.13;56.65
8039;BME280;4062;49.844;8.120;2023-04-20T07:57:39;99249.44;;;15.14;56.86
8039;BME280;4062;49.844;8.120;2023-04-20T07:59:47;99246.84;;;15.13;56.86
8039;BME280;4062;49.844;8.120;2023-04-20T08:01:48;99236.13;;;15.14;56.69
8039;BME280;4062;49.844;8.120;2023-04-20T08:03:51;99236.22;;;15.13;56.71
8039;BME280;4062;49.844;8.120;2023-04-20T08:05:52;99238.88;;;15.13;56.78
8039;BME280;4062;49.844;8.120;2023-04-20T08:07:53;99245.06;;;15.13;56.71
8039;BME280;4062;49.844;8.120;2023-04-20T08:09:55;99240.69;;;15.12;56.79
8039;BME280;4062;49.844;8.120;2023-04-20T08:11:56;99230.88;;;15.13;56.66
8039;BME280;4062;49.844;8.120;2023-04-20T08:13:58;99236.13;;;15.14;56.66
8039;BME280;4062;49.844;8.120;2023-04-20T08:16:00;99235.34;;;15.12;56.68
8039;BME280;4062;49.844;8.120;2023-04-20T08:18:01;99230.88;;;15.13;56.67
8039;BME280;4062;49.844;8.120;2023-04-20T08:20:02;99231.81;;;15.12;56.62
8039;BME280;4062;49.844;8.120;2023-04-20T08:22:06;99235.34;;;15.12;56.59
8039;BME280;4062;49.844;8.120;2023-04-20T08:24:08;99232.69;;;15.12;56.80
8039;BME280;4062;49.844;8.120;2023-04-20T08:26:14;99235.34;;;15.12;56.68
8039;BME280;4062;49.844;8.120;2023-04-20T08:28:17;99237.13;;;15.12;56.56
8039;BME280;4062;49.844;8.120;2023-04-20T08:30:18;99235.34;;;15.12;56.54
8039;BME280;4062;49.844;8.120;2023-04-20T08:32:19;99226.56;;;15.10;56.55
8039;BME280;4062;49.844;8.120;2023-04-20T08:34:22;99220.31;;;15.11;56.68
8039;BME280;4062;49.844;8.120;2023-04-20T08:36:24;99230.97;;;15.11;56.59
8039;BME280;4062;49.844;8.120;2023-04-20T08:38:29;99229.16;;;15.12;56.61
8039;BME280;4062;49.844;8.120;2023-04-20T08:40:31;99216.78;;;15.11;56.68
8039;BME280;4062;49.844;8.120;2023-04-20T08:42:32;99208.78;;;15.11;56.67
8039;BME280;4062;49.844;8.120;2023-04-20T08:44:33;99213.28;;;15.10;56.74
8039;BME280;4062;49.844;8.120;2023-04-20T08:46:36;99212.34;;;15.11;56.72
8039;BME280;4062;49.844;8.120;2023-04-20T08:48:39;99230.09;;;15.11;56.61
8039;BME280;4062;49.844;8.120;2023-04-20T08:50:41;99209.72;;;15.10;56.81
8039;BME280;4062;49.844;8.120;2023-04-20T08:52:43;99211.53;;;15.09;56.71
8039;BME280;4062;49.844;8.120;2023-04-20T08:54:44;99208.88;;;15.09;56.63
8039;BME280;4062;49.844;8.120;2023-04-20T08:56:46;99209.72;;;15.10;56.74
8039;BME280;4062;49.844;8.120;2023-04-20T08:58:48;99215.06;;;15.10;56.61
8039;BME280;4062;49.844;8.120;2023-04-20T09:00:52;99208.03;;;15.09;56.62
8039;BME280;4062;49.844;8.120;2023-04-20T09:02:55;99208.03;;;15.09;56.63
8039;BME280;4062;49.844;8.120;2023-04-20T09:05:03;99207.16;;;15.08;56.81
8039;BME280;4062;49.844;8.120;2023-04-20T09:07:05;99208.03;;;15.09;56.62
8039;BME280;4062;49.844;8.120;2023-04-20T09:09:09;99202.72;;;15.09;56.62
8039;BME280;4062;49.844;8.120;2023-04-20T09:11:25;99201.81;;;15.08;56.63
8039;BME280;4062;49.844;8.120;2023-04-20T09:13:26;99198.31;;;15.08;56.76
8039;BME280;4062;49.844;8.120;2023-04-20T09:15:29;99194.78;;;15.07;56.64
8039;BME280;4062;49.844;8.120;2023-04-20T09:17:35;99199.16;;;15.08;56.69
8039;BME280;4062;49.844;8.120;2023-04-20T09:19:39;99197.44;;;15.07;56.70
8039;BME280;4062;49.844;8.120;2023-04-20T09:21:51;99197.44;;;15.07;56.55
8039;BME280;4062;49.844;8.120;2023-04-20T09:24:01;99192.13;;;15.07;56.76
8039;BME280;4062;49.844;8.120;2023-04-20T09:26:03;99193.00;;;15.08;56.58
8039;BME280;4062;49.844;8.120;2023-04-20T09:28:05;99196.50;;;15.08;56.71
8039;BME280;4062;49.844;8.120;2023-04-20T09:30:07;99198.31;;;15.08;56.69
8039;BME280;4062;49.844;8.120;2023-04-20T09:32:21;99190.34;;;15.08;56.61
8039;BME280;4062;49.844;8.120;2023-04-20T09:34:23;99192.13;;;15.07;56.67
8039;BME280;4062;49.844;8.120;2023-04-20T09:36:52;99185.84;;;15.08;56.72
8039;BME280;4062;49.844;8.120;2023-04-20T09:39:26;99193.84;;;15.08;56.62
8039;BME280;4062;49.844;8.120;2023-04-20T09:41:29;99192.06;;;15.09;56.73
8039;BME280;4062;49.844;8.120;2023-04-20T09:43:31;99192.91;;;15.09;56.58
8039;BME280;4062;49.844;8.120;2023-04-20T09:45:33;99194.72;;;15.09;56.56
8039;BME280;4062;49.844;8.120;2023-04-20T09:47:35;99184.94;;;15.09;56.67
8039;BME280;4062;49.844;8.120;2023-04-20T09:49:44;99186.75;;;15.09;56.56
8039;BME280;4062;49.844;8.120;2023-04-20T09:51:46;99174.28;;;15.09;56.71
8039;BME280;4062;49.844;8.120;2023-04-20T09:53:49;99183.19;;;15.08;56.63
8039;BME280;4062;49.844;8.120;2023-04-20T09:55:50;99176.09;;;15.09;56.77
8039;BME280;4062;49.844;8.120;2023-04-20T09:57:53;99172.56;;;15.08;56.69
8039;BME280;4062;49.844;8.120;2023-04-20T09:59:55;99172.56;;;15.08;56.61
8039;BME280;4062;49.844;8.120;2023-04-20T10:01:57;99166.38;;;15.08;56.68
8039;BME280;4062;49.844;8.120;2023-04-20T10:04:00;99169.91;;;15.08;56.76
8039;BME280;4062;49.844;8.120;2023-04-20T10:06:02;99159.25;;;15.08;56.58
8039;BME280;4062;49.844;8.120;2023-04-20T10:08:04;99169.03;;;15.08;56.61
8039;BME280;4062;49.844;8.120;2023-04-20T10:10:11;99159.25;;;15.08;56.54
8039;BME280;4062;49.844;8.120;2023-04-20T10:12:13;99155.75;;;15.08;56.58
8039;BME280;4062;49.844;8.120;2023-04-20T10:14:18;99156.59;;;15.08;56.56
8039;BME280;4062;49.844;8.120;2023-04-20T10:16:20;99153.09;;;15.08;56.54
8039;BME280;4062;49.844;8.120;2023-04-20T10:18:22;99148.59;;;15.08;56.58
8039;BME280;4062;49.844;8.120;2023-04-20T10:20:26;99145.09;;;15.08;56.52
8039;BME280;4062;49.844;8.120;2023-04-20T10:22:30;99146.88;;;15.07;56.68
8039;BME280;4062;49.844;8.120;2023-04-20T10:24:35;99137.97;;;15.08;56.58
8039;BME280;4062;49.844;8.120;2023-04-20T10:26:43;99141.56;;;15.07;56.62
8039;BME280;4062;49.844;8.120;2023-04-20T10:28:45;99133.56;;;15.07;56.63
8039;BME280;4062;49.844;8.120;2023-04-20T10:30:51;99131.78;;;15.08;56.55
8039;BME280;4062;49.844;8.120;2023-04-20T10:33:10;99128.25;;;15.07;56.58
8039;BME280;4062;49.844;8.120;2023-04-20T10:35:12;99120.28;;;15.07;56.46
8039;BME280;4062;49.844;8.120;2023-04-20T10:37:14;99127.41;;;15.07;56.64
8039;BME280;4062;49.844;8.120;2023-04-20T10:39:18;99124.75;;;15.07;56.52
8039;BME280;4062;49.844;8.120;2023-04-20T10:41:20;99125.59;;;15.07;56.61
8039;BME280;4062;49.844;8.120;2023-04-20T10:43:22;99120.28;;;15.07;56.52
8039;BME280;4062;49.844;8.120;2023-04-20T10:45:34;99121.19;;;15.06;56.52
8039;BME280;4062;49.844;8.120;2023-04-20T10:47:36;99114.09;;;15.07;56.53
8039;BME280;4062;49.844;8.120;2023-04-20T10:49:40;99112.28;;;15.07;56.55
8039;BME280;4062;49.844;8.120;2023-04-20T10:51:49;99109.72;;;15.06;56.57
8039;BME280;4062;49.844;8.120;2023-04-20T10:54:02;99108.84;;;15.05;56.51
8039;BME280;4062;49.844;8.120;2023-04-20T10:56:05;99109.72;;;15.06;56.60
8039;BME280;4062;49.844;8.120;2023-04-20T10:58:07;99107.06;;;15.06;56.62
8039;BME280;4062;49.844;8.120;2023-04-20T11:00:20;99100.00;;;15.05;56.66
8039;BME280;4062;49.844;8.120;2023-04-20T11:02:22;99093.84;;;15.04;56.68
8039;BME280;4062;49.844;8.120;2023-04-20T11:04:30;99092.88;;;15.05;56.65
8039;BME280;4062;49.844;8.120;2023-04-20T11:06:35;99084.03;;;15.05;56.57
8039;BME280;4062;49.844;8.120;2023-04-20T11:08:40;99083.19;;;15.04;56.63
8039;BME280;4062;49.844;8.120;2023-04-20T11:10:42;99077.88;;;15.04;56.54